sensor_id;sensor_type;location;lat;lon;timestamp;P1;durP1;ratioP1;P2;durP2;ratioP2
76475;SDS011;65308;50.078;14.854;2024-02-23T00:02:10;2.13;;;1.45;;
76475;SDS011;65308;50.078;14.854;2024-02-23T00:04:36;2.40;;;1.30;;
76475;SDS011;65308;50.078;14.854;2024-02-23T00:07:02;2.83;;;1.50;;
76475;SDS011;65308;50.078;14.854;2024-02-23T00:09:29;3.33;;;1.58;;
76475;SDS011;65308;50.078;14.854;2024-02-23T00:11:56;2.10;;;1.30;;
76475;SDS011;65308;50.078;14.854;2024-02-23T00:14:23;1.63;;;1.30;;
76475;SDS011;65308;50.078;14.854;2024-02-23T00:16:49;3.30;;;1.55;;
76475;SDS011;65308;50.078;14.854;2024-02-23T00:19:17;1.88;;;1.23;;
76475;SDS011;65308;50.078;14.854;2024-02-23T00:21:45;2.25;;;1.40;;
76475;SDS011;65308;50.078;14.854;2024-02-23T00:24:15;2.67;;;1.23;;
76475;SDS011;65308;50.078;14.854;2024-02-23T00:26:42;2.70;;;1.40;;
76475;SDS011;65308;50.078;14.854;2024-02-23T00:29:09;2.33;;;1.40;;
76475;SDS011;65308;50.078;14.854;2024-02-23T00:31:37;3.97;;;2.25;;
76475;SDS011;65308;50.078;14.854;2024-02-23T00:34:06;3.40;;;1.55;;
76475;SDS011;65308;50.078;14.854;2024-02-23T00:36:37;2.40;;;1.48;;
76475;SDS011;65308;50.078;14.854;2024-02-23T00:39:04;3.25;;;1.60;;
76475;SDS011;65308;50.078;14.854;2024-02-23T00:41:32;1.88;;;1.40;;
76475;SDS011;65308;50.078;14.854;2024-02-23T00:43:59;3.30;;;1.50;;
76475;SDS011;65308;50.078;14.854;2024-02-23T00:46:27;3.00;;;1.67;;
76475;SDS011;65308;50.078;14.854;2024-02-23T00:48:54;2.13;;;1.50;;
76475;SDS011;65308;50.078;14.854;2024-02-23T00:51:21;3.00;;;1.60;;
76475;SDS011;65308;50.078;14.854;2024-02-23T00:53:49;4.30;;;1.50;;
76475;SDS011;65308;50.078;14.854;2024-02-23T00:56:16;3.45;;;1.60;;
76475;SDS011;65308;50.078;14.854;2024-02-23T00:58:42;3.85;;;1.42;;
76475;SDS011;65308;50.078;14.854;2024-02-23T01:01:10;3.15;;;1.30;;
76475;SDS011;65308;50.078;14.854;2024-02-23T01:03:36;3.05;;;1.52;;
76475;SDS011;65308;50.078;14.854;2024-02-23T01:06:03;7.30;;;1.48;;
76475;SDS011;65308;50.078;14.854;2024-02-23T01:08:30;1.88;;;1.25;;
76475;SDS011;65308;50.078;14.854;2024-02-23T01:10:58;2.33;;;1.38;;
76475;SDS011;65308;50.078;14.854;2024-02-23T01:13:25;2.05;;;1.30;;
76475;SDS011;65308;50.078;14.854;2024-02-23T01:15:52;2.17;;;1.50;;
76475;SDS011;65308;50.078;14.854;2024-02-23T01:18:20;2.75;;;1.70;;
76475;SDS011;65308;50.078;14.854;2024-02-23T01:20:46;1.83;;;1.10;;
76475;SDS011;65308;50.078;14.854;2024-02-23T01:23:13;2.38;;;1.38;;
76475;SDS011;65308;50.078;14.854;2024-02-23T01:25:40;4.22;;;1.50;;
76475;SDS011;65308;50.078;14.854;2024-02-23T01:28:08;2.63;;;1.50;;
76475;SDS011;65308;50.078;14.854;2024-02-23T01:30:34;2.30;;;1.40;;
76475;SDS011;65308;50.078;14.854;2024-02-23T01:33:01;1.83;;;1.30;;
76475;SDS011;65308;50.078;14.854;2024-02-23T01:35:28;2.45;;;1.40;;
76475;SDS011;65308;50.078;14.854;2024-02-23T01:37:55;2.35;;;1.35;;
76475;SDS011;65308;50.078;14.854;2024-02-23T01:40:21;3.17;;;1.65;;
76475;SDS011;65308;50.078;14.854;2024-02-23T01:42:48;3.50;;;1.40;;
76475;SDS011;65308;50.078;14.854;2024-02-23T01:45:16;2.25;;;1.40;;
76475;SDS011;65308;50.078;14.854;2024-02-23T01:47:43;1.95;;;1.20;;
76475;SDS011;65308;50.078;14.854;2024-02-23T01:50:09;2.60;;;1.45;;
76475;SDS011;65308;50.078;14.854;2024-02-23T01:52:37;1.63;;;1.20;;
76475;SDS011;65308;50.078;14.854;2024-02-23T01:55:04;2.25;;;1.30;;
76475;SDS011;65308;50.078;14.854;2024-02-23T01:57:31;2.22;;;1.30;;
76475;SDS011;65308;50.078;14.854;2024-02-23T01:59:59;1.83;;;1.27;;
76475;SDS011;65308;50.078;14.854;2024-02-23T02:02:27;2.30;;;1.42;;
76475;SDS011;65308;50.078;14.854;2024-02-23T02:04:55;1.60;;;1.20;;
76475;SDS011;65308;50.078;14.854;2024-02-23T02:07:22;2.55;;;1.23;;
76475;SDS011;65308;50.078;14.854;2024-02-23T02:10:37;1.05;;;0.88;;
76475;SDS011;65308;50.078;14.854;2024-02-23T02:12:46;1.15;;;0.90;;
76475;SDS011;65308;50.078;14.854;2024-02-23T02:15:27;1.65;;;0.90;;
76475;SDS011;65308;50.078;14.854;2024-02-23T02:18:02;1.40;;;0.98;;
76475;SDS011;65308;50.078;14.854;2024-02-23T02:20:37;1.85;;;1.15;;
76475;SDS011;65308;50.078;14.854;2024-02-23T02:23:22;0.90;;;0.80;;
76475;SDS011;65308;50.078;14.854;2024-02-23T02:26:03;1.25;;;1.00;;
76475;SDS011;65308;50.078;14.854;2024-02-23T02:28:30;1.50;;;1.00;;
76475;SDS011;65308;50.078;14.854;2024-02-23T02:30:57;1.25;;;1.00;;
76475;SDS011;65308;50.078;14.854;2024-02-23T02:33:25;1.08;;;0.88;;
76475;SDS011;65308;50.078;14.854;2024-02-23T02:35:52;2.88;;;0.90;;
76475;SDS011;65308;50.078;14.854;2024-02-23T02:38:18;1.60;;;0.95;;
76475;SDS011;65308;50.078;14.854;2024-02-23T02:40:45;1.67;;;1.10;;
76475;SDS011;65308;50.078;14.854;2024-02-23T02:43:21;1.25;;;0.90;;
76475;SDS011;65308;50.078;14.854;2024-02-23T02:46:21;0.95;;;0.80;;
76475;SDS011;65308;50.078;14.854;2024-02-23T02:48:49;1.63;;;1.00;;
76475;SDS011;65308;50.078;14.854;2024-02-23T02:51:16;1.65;;;0.90;;
76475;SDS011;65308;50.078;14.854;2024-02-23T02:53:42;1.55;;;1.05;;
76475;SDS011;65308;50.078;14.854;2024-02-23T02:56:09;1.02;;;0.90;;
76475;SDS011;65308;50.078;14.854;2024-02-23T02:58:35;3.00;;;1.10;;
76475;SDS011;65308;50.078;14.854;2024-02-23T03:01:02;1.35;;;0.90;;
76475;SDS011;65308;50.078;14.854;2024-02-23T03:03:29;1.67;;;1.10;;
76475;SDS011;65308;50.078;14.854;2024-02-23T03:05:57;1.30;;;1.00;;
76475;SDS011;65308;50.078;14.854;2024-02-23T03:08:23;1.13;;;0.90;;
76475;SDS011;65308;50.078;14.854;2024-02-23T03:10:51;0.85;;;0.82;;
76475;SDS011;65308;50.078;14.854;2024-02-23T03:13:17;0.63;;;0.60;;
76475;SDS011;65308;50.078;14.854;2024-02-23T03:15:44;1.08;;;0.90;;
76475;SDS011;65308;50.078;14.854;2024-02-23T03:18:11;1.35;;;1.00;;
76475;SDS011;65308;50.078;14.854;2024-02-23T03:20:39;1.60;;;0.93;;
76475;SDS011;65308;50.078;14.854;2024-02-23T03:23:08;1.40;;;0.75;;
76475;SDS011;65308;50.078;14.854;2024-02-23T03:25:34;1.55;;;1.10;;
76475;SDS011;65308;50.078;14.854;2024-02-23T03:28:01;0.90;;;0.90;;
76475;SDS011;65308;50.078;14.854;2024-02-23T03:30:27;0.60;;;0.60;;
76475;SDS011;65308;50.078;14.854;2024-02-23T03:32:54;1.02;;;0.80;;
76475;SDS011;65308;50.078;14.854;2024-02-23T03:35:20;0.93;;;0.85;;
76475;SDS011;65308;50.078;14.854;2024-02-23T03:37:47;0.85;;;0.85;;
76475;SDS011;65308;50.078;14.854;2024-02-23T03:40:15;1.08;;;0.73;;
76475;SDS011;65308;50.078;14.854;2024-02-23T03:42:43;1.90;;;0.65;;
76475;SDS011;65308;50.078;14.854;2024-02-23T03:45:09;1.10;;;0.70;;
76475;SDS011;65308;50.078;14.854;2024-02-23T03:47:36;0.63;;;0.63;;
76475;SDS011;65308;50.078;14.854;2024-02-23T03:50:05;0.80;;;0.70;;
76475;SDS011;65308;50.078;14.854;2024-02-23T03:52:32;0.50;;;0.50;;
76475;SDS011;65308;50.078;14.854;2024-02-23T03:54:59;1.70;;;0.70;;
76475;SDS011;65308;50.078;14.854;2024-02-23T03:57:27;1.33;;;0.60;;
76475;SDS011;65308;50.078;14.854;2024-02-23T03:59:53;0.70;;;0.70;;
76475;SDS011;65308;50.078;14.854;2024-02-23T04:02:20;0.40;;;0.40;;
76475;SDS011;65308;50.078;14.854;2024-02-23T04:04:47;0.80;;;0.63;;
76475;SDS011;65308;50.078;14.854;2024-02-23T04:07:14;0.98;;;0.60;;
76475;SDS011;65308;50.078;14.854;2024-02-23T04:09:41;0.40;;;0.40;;
76475;SDS011;65308;50.078;14.854;2024-02-23T04:12:07;1.00;;;0.47;;
76475;SDS011;65308;50.078;14.854;2024-02-23T04:14:35;0.50;;;0.50;;
76475;SDS011;65308;50.078;14.854;2024-02-23T04:17:02;0.25;;;0.20;;
76475;SDS011;65308;50.078;14.854;2024-02-23T04:19:29;1.20;;;0.73;;
76475;SDS011;65308;50.078;14.854;2024-02-23T04:21:56;0.50;;;0.45;;
76475;SDS011;65308;50.078;14.854;2024-02-23T04:24:21;0.75;;;0.50;;
76475;SDS011;65308;50.078;14.854;2024-02-23T04:26:48;0.88;;;0.40;;
76475;SDS011;65308;50.078;14.854;2024-02-23T04:29:15;0.40;;;0.40;;
76475;SDS011;65308;50.078;14.854;2024-02-23T04:31:43;0.40;;;0.40;;
76475;SDS011;65308;50.078;14.854;2024-02-23T04:34:09;0.57;;;0.35;;
76475;SDS011;65308;50.078;14.854;2024-02-23T04:36:36;0.45;;;0.40;;
76475;SDS011;65308;50.078;14.854;2024-02-23T04:39:03;0.90;;;0.57;;
76475;SDS011;65308;50.078;14.854;2024-02-23T04:41:30;1.55;;;0.35;;
76475;SDS011;65308;50.078;14.854;2024-02-23T04:43:56;0.80;;;0.40;;
76475;SDS011;65308;50.078;14.854;2024-02-23T04:46:25;0.40;;;0.40;;
76475;SDS011;65308;50.078;14.854;2024-02-23T04:48:53;1.80;;;0.55;;
76475;SDS011;65308;50.078;14.854;2024-02-23T04:51:19;0.60;;;0.60;;
76475;SDS011;65308;50.078;14.854;2024-02-23T04:53:47;0.55;;;0.40;;
76475;SDS011;65308;50.078;14.854;2024-02-23T04:56:14;0.25;;;0.10;;
76475;SDS011;65308;50.078;14.854;2024-02-23T04:58:41;0.40;;;0.40;;
76475;SDS011;65308;50.078;14.854;2024-02-23T05:01:08;0.88;;;0.70;;
76475;SDS011;65308;50.078;14.854;2024-02-23T05:03:35;0.65;;;0.45;;
76475;SDS011;65308;50.078;14.854;2024-02-23T05:06:04;1.02;;;0.73;;
76475;SDS011;65308;50.078;14.854;2024-02-23T05:08:31;0.40;;;0.40;;
76475;SDS011;65308;50.078;14.854;2024-02-23T05:10:59;0.22;;;0.22;;
76475;SDS011;65308;50.078;14.854;2024-02-23T05:13:26;1.50;;;0.40;;
76475;SDS011;65308;50.078;14.854;2024-02-23T05:15:54;0.65;;;0.35;;
76475;SDS011;65308;50.078;14.854;2024-02-23T05:18:22;0.82;;;0.52;;
76475;SDS011;65308;50.078;14.854;2024-02-23T05:20:51;0.73;;;0.40;;
76475;SDS011;65308;50.078;14.854;2024-02-23T05:23:19;0.60;;;0.60;;
76475;SDS011;65308;50.078;14.854;2024-02-23T05:25:46;0.30;;;0.30;;
76475;SDS011;65308;50.078;14.854;2024-02-23T05:28:13;0.75;;;0.60;;
76475;SDS011;65308;50.078;14.854;2024-02-23T05:30:40;0.60;;;0.40;;
76475;SDS011;65308;50.078;14.854;2024-02-23T05:33:09;1.73;;;0.65;;
76475;SDS011;65308;50.078;14.854;2024-02-23T05:35:36;0.32;;;0.28;;
76475;SDS011;65308;50.078;14.854;2024-02-23T05:38:02;0.82;;;0.45;;
76475;SDS011;65308;50.078;14.854;2024-02-23T05:40:32;0.55;;;0.35;;
76475;SDS011;65308;50.078;14.854;2024-02-23T05:42:59;0.60;;;0.57;;
76475;SDS011;65308;50.078;14.854;2024-02-23T05:45:29;2.50;;;1.33;;
76475;SDS011;65308;50.078;14.854;2024-02-23T05:47:56;1.65;;;1.13;;
76475;SDS011;65308;50.078;14.854;2024-02-23T05:50:24;3.70;;;1.65;;
76475;SDS011;65308;50.078;14.854;2024-02-23T05:52:50;2.63;;;1.50;;
76475;SDS011;65308;50.078;14.854;2024-02-23T05:55:18;0.55;;;0.40;;
76475;SDS011;65308;50.078;14.854;2024-02-23T05:57:51;0.85;;;0.75;;
76475;SDS011;65308;50.078;14.854;2024-02-23T06:00:18;0.25;;;0.25;;
76475;SDS011;65308;50.078;14.854;2024-02-23T06:02:46;1.15;;;0.68;;
76475;SDS011;65308;50.078;14.854;2024-02-23T06:05:13;1.23;;;0.90;;
76475;SDS011;65308;50.078;14.854;2024-02-23T06:07:40;0.95;;;0.82;;
76475;SDS011;65308;50.078;14.854;2024-02-23T06:10:07;0.28;;;0.28;;
76475;SDS011;65308;50.078;14.854;2024-02-23T06:12:34;0.47;;;0.40;;
76475;SDS011;65308;50.078;14.854;2024-02-23T06:15:02;0.40;;;0.38;;
76475;SDS011;65308;50.078;14.854;2024-02-23T06:17:29;0.38;;;0.38;;
76475;SDS011;65308;50.078;14.854;2024-02-23T06:19:55;0.45;;;0.40;;
76475;SDS011;65308;50.078;14.854;2024-02-23T06:22:24;0.47;;;0.47;;
76475;SDS011;65308;50.078;14.854;2024-02-23T06:24:50;1.00;;;0.55;;
76475;SDS011;65308;50.078;14.854;2024-02-23T06:27:17;2.28;;;0.63;;
76475;SDS011;65308;50.078;14.854;2024-02-23T06:29:43;1.13;;;0.57;;
76475;SDS011;65308;50.078;14.854;2024-02-23T06:32:11;0.77;;;0.57;;
76475;SDS011;65308;50.078;14.854;2024-02-23T06:34:38;1.65;;;0.63;;
76475;SDS011;65308;50.078;14.854;2024-02-23T06:37:04;1.98;;;0.70;;
76475;SDS011;65308;50.078;14.854;2024-02-23T06:39:31;1.08;;;0.50;;
76475;SDS011;65308;50.078;14.854;2024-02-23T06:41:58;0.60;;;0.50;;
76475;SDS011;65308;50.078;14.854;2024-02-23T06:44:25;0.75;;;0.63;;
76475;SDS011;65308;50.078;14.854;2024-02-23T06:46:52;0.55;;;0.30;;
76475;SDS011;65308;50.078;14.854;2024-02-23T06:49:20;0.50;;;0.40;;
76475;SDS011;65308;50.078;14.854;2024-02-23T06:51:47;1.13;;;0.65;;
76475;SDS011;65308;50.078;14.854;2024-02-23T06:54:13;0.70;;;0.47;;
76475;SDS011;65308;50.078;14.854;2024-02-23T06:56:41;1.17;;;0.55;;
76475;SDS011;65308;50.078;14.854;2024-02-23T06:59:08;2.67;;;1.40;;
76475;SDS011;65308;50.078;14.854;2024-02-23T07:01:35;4.85;;;2.05;;
76475;SDS011;65308;50.078;14.854;2024-02-23T07:04:02;5.30;;;2.05;;
76475;SDS011;65308;50.078;14.854;2024-02-23T07:06:30;2.78;;;1.50;;
76475;SDS011;65308;50.078;14.854;2024-02-23T07:08:57;3.10;;;1.60;;
76475;SDS011;65308;50.078;14.854;2024-02-23T07:11:23;1.73;;;1.38;;
76475;SDS011;65308;50.078;14.854;2024-02-23T07:13:50;1.40;;;0.82;;
76475;SDS011;65308;50.078;14.854;2024-02-23T07:16:17;2.28;;;1.00;;
76475;SDS011;65308;50.078;14.854;2024-02-23T07:18:44;3.33;;;1.55;;
76475;SDS011;65308;50.078;14.854;2024-02-23T07:21:10;2.08;;;1.33;;
76475;SDS011;65308;50.078;14.854;2024-02-23T07:23:38;2.28;;;1.40;;
76475;SDS011;65308;50.078;14.854;2024-02-23T07:26:05;1.45;;;1.00;;
76475;SDS011;65308;50.078;14.854;2024-02-23T07:28:31;3.70;;;1.33;;
76475;SDS011;65308;50.078;14.854;2024-02-23T07:30:58;2.10;;;1.17;;
76475;SDS011;65308;50.078;14.854;2024-02-23T07:33:25;2.15;;;1.20;;
76475;SDS011;65308;50.078;14.854;2024-02-23T07:35:51;1.67;;;1.10;;
76475;SDS011;65308;50.078;14.854;2024-02-23T07:38:18;1.25;;;0.80;;
76475;SDS011;65308;50.078;14.854;2024-02-23T07:40:46;0.80;;;0.80;;
76475;SDS011;65308;50.078;14.854;2024-02-23T07:43:12;1.63;;;1.00;;
76475;SDS011;65308;50.078;14.854;2024-02-23T07:45:39;0.80;;;0.75;;
76475;SDS011;65308;50.078;14.854;2024-02-23T07:48:07;1.50;;;1.00;;
76475;SDS011;65308;50.078;14.854;2024-02-23T07:50:34;1.45;;;1.00;;
76475;SDS011;65308;50.078;14.854;2024-02-23T07:53:01;2.25;;;1.25;;
76475;SDS011;65308;50.078;14.854;2024-02-23T07:55:29;1.65;;;0.90;;
76475;SDS011;65308;50.078;14.854;2024-02-23T07:57:57;1.58;;;1.10;;
76475;SDS011;65308;50.078;14.854;2024-02-23T08:00:26;1.60;;;0.98;;
76475;SDS011;65308;50.078;14.854;2024-02-23T08:02:53;0.88;;;0.82;;
76475;SDS011;65308;50.078;14.854;2024-02-23T08:05:21;1.42;;;0.98;;
76475;SDS011;65308;50.078;14.854;2024-02-23T08:07:48;1.35;;;1.05;;
76475;SDS011;65308;50.078;14.854;2024-02-23T08:10:18;2.47;;;1.08;;
76475;SDS011;65308;50.078;14.854;2024-02-23T08:12:46;1.58;;;1.00;;
76475;SDS011;65308;50.078;14.854;2024-02-23T08:15:14;1.70;;;1.17;;
76475;SDS011;65308;50.078;14.854;2024-02-23T08:17:43;2.97;;;1.70;;
76475;SDS011;65308;50.078;14.854;2024-02-23T08:20:10;1.58;;;1.20;;
76475;SDS011;65308;50.078;14.854;2024-02-23T08:22:36;2.63;;;1.33;;
76475;SDS011;65308;50.078;14.854;2024-02-23T08:25:07;1.77;;;1.20;;
76475;SDS011;65308;50.078;14.854;2024-02-23T08:27:34;2.22;;;1.23;;
76475;SDS011;65308;50.078;14.854;2024-02-23T08:30:00;1.73;;;1.20;;
76475;SDS011;65308;50.078;14.854;2024-02-23T08:32:28;2.13;;;1.30;;
76475;SDS011;65308;50.078;14.854;2024-02-23T08:34:55;2.03;;;1.27;;
76475;SDS011;65308;50.078;14.854;2024-02-23T08:37:27;2.67;;;1.40;;
76475;SDS011;65308;50.078;14.854;2024-02-23T08:39:56;1.83;;;1.30;;
76475;SDS011;65308;50.078;14.854;2024-02-23T08:42:32;3.90;;;1.05;;
76475;SDS011;65308;50.078;14.854;2024-02-23T08:44:59;3.10;;;1.30;;
76475;SDS011;65308;50.078;14.854;2024-02-23T08:47:26;2.33;;;1.27;;
76475;SDS011;65308;50.078;14.854;2024-02-23T08:49:58;1.80;;;1.20;;
76475;SDS011;65308;50.078;14.854;2024-02-23T08:52:29;3.33;;;1.70;;
76475;SDS011;65308;50.078;14.854;2024-02-23T08:54:56;1.38;;;1.00;;
76475;SDS011;65308;50.078;14.854;2024-02-23T08:57:22;1.00;;;0.90;;
76475;SDS011;65308;50.078;14.854;2024-02-23T08:59:49;2.10;;;1.10;;
76475;SDS011;65308;50.078;14.854;2024-02-23T09:02:16;2.15;;;1.10;;
76475;SDS011;65308;50.078;14.854;2024-02-23T09:04:43;2.90;;;1.50;;
76475;SDS011;65308;50.078;14.854;2024-02-23T09:07:12;2.88;;;1.42;;
76475;SDS011;65308;50.078;14.854;2024-02-23T09:09:39;2.88;;;0.85;;
76475;SDS011;65308;50.078;14.854;2024-02-23T09:12:05;1.83;;;0.90;;
76475;SDS011;65308;50.078;14.854;2024-02-23T09:14:35;2.20;;;1.20;;
76475;SDS011;65308;50.078;14.854;2024-02-23T09:17:02;3.47;;;1.35;;
76475;SDS011;65308;50.078;14.854;2024-02-23T09:19:29;2.80;;;1.40;;
76475;SDS011;65308;50.078;14.854;2024-02-23T09:21:56;3.92;;;1.52;;
76475;SDS011;65308;50.078;14.854;2024-02-23T09:24:26;3.15;;;1.50;;
76475;SDS011;65308;50.078;14.854;2024-02-23T09:26:52;4.75;;;2.10;;
76475;SDS011;65308;50.078;14.854;2024-02-23T09:29:19;4.25;;;1.77;;
76475;SDS011;65308;50.078;14.854;2024-02-23T09:31:46;4.50;;;1.67;;
76475;SDS011;65308;50.078;14.854;2024-02-23T09:34:13;4.00;;;2.20;;
76475;SDS011;65308;50.078;14.854;2024-02-23T09:36:39;7.53;;;2.20;;
76475;SDS011;65308;50.078;14.854;2024-02-23T09:39:06;5.45;;;2.30;;
76475;SDS011;65308;50.078;14.854;2024-02-23T09:41:34;5.05;;;2.17;;
76475;SDS011;65308;50.078;14.854;2024-02-23T09:44:01;8.20;;;2.72;;
76475;SDS011;65308;50.078;14.854;2024-02-23T09:46:28;5.75;;;2.63;;
76475;SDS011;65308;50.078;14.854;2024-02-23T09:48:55;4.63;;;2.28;;
76475;SDS011;65308;50.078;14.854;2024-02-23T09:51:22;4.53;;;2.20;;
76475;SDS011;65308;50.078;14.854;2024-02-23T09:53:49;5.03;;;2.10;;
76475;SDS011;65308;50.078;14.854;2024-02-23T09:56:16;3.75;;;1.75;;
76475;SDS011;65308;50.078;14.854;2024-02-23T09:58:46;3.33;;;1.23;;
76475;SDS011;65308;50.078;14.854;2024-02-23T10:01:14;3.10;;;1.40;;
76475;SDS011;65308;50.078;14.854;2024-02-23T10:03:48;2.83;;;1.40;;
76475;SDS011;65308;50.078;14.854;2024-02-23T10:06:15;5.22;;;1.60;;
76475;SDS011;65308;50.078;14.854;2024-02-23T10:08:42;3.85;;;1.50;;
76475;SDS011;65308;50.078;14.854;2024-02-23T10:11:08;5.80;;;2.10;;
76475;SDS011;65308;50.078;14.854;2024-02-23T10:13:38;3.17;;;1.30;;
76475;SDS011;65308;50.078;14.854;2024-02-23T10:16:11;2.33;;;1.48;;
76475;SDS011;65308;50.078;14.854;2024-02-23T10:18:38;3.20;;;1.50;;
76475;SDS011;65308;50.078;14.854;2024-02-23T10:21:05;1.88;;;1.20;;
76475;SDS011;65308;50.078;14.854;2024-02-23T10:23:31;3.42;;;1.73;;
76475;SDS011;65308;50.078;14.854;2024-02-23T10:25:58;3.63;;;1.70;;
76475;SDS011;65308;50.078;14.854;2024-02-23T10:28:31;4.25;;;1.40;;
76475;SDS011;65308;50.078;14.854;2024-02-23T10:30:59;3.28;;;1.70;;
76475;SDS011;65308;50.078;14.854;2024-02-23T10:33:29;5.93;;;1.40;;
76475;SDS011;65308;50.078;14.854;2024-02-23T10:35:57;4.05;;;1.35;;
76475;SDS011;65308;50.078;14.854;2024-02-23T10:38:24;3.95;;;1.75;;
76475;SDS011;65308;50.078;14.854;2024-02-23T10:40:53;5.88;;;2.20;;
76475;SDS011;65308;50.078;14.854;2024-02-23T10:43:23;3.92;;;2.20;;
76475;SDS011;65308;50.078;14.854;2024-02-23T10:45:56;3.75;;;1.20;;
76475;SDS011;65308;50.078;14.854;2024-02-23T10:48:24;2.97;;;1.00;;
76475;SDS011;65308;50.078;14.854;2024-02-23T10:50:55;2.97;;;1.20;;
76475;SDS011;65308;50.078;14.854;2024-02-23T10:53:22;1.60;;;1.20;;
76475;SDS011;65308;50.078;14.854;2024-02-23T10:58:18;2.75;;;1.35;;
76475;SDS011;65308;50.078;14.854;2024-02-23T11:00:45;2.33;;;1.20;;
76475;SDS011;65308;50.078;14.854;2024-02-23T11:03:11;3.88;;;1.20;;
76475;SDS011;65308;50.078;14.854;2024-02-23T11:08:07;3.67;;;1.50;;
76475;SDS011;65308;50.078;14.854;2024-02-23T11:10:41;3.20;;;1.45;;
76475;SDS011;65308;50.078;14.854;2024-02-23T11:13:08;3.28;;;1.35;;
76475;SDS011;65308;50.078;14.854;2024-02-23T11:15:34;3.15;;;1.20;;
76475;SDS011;65308;50.078;14.854;2024-02-23T11:20:53;1.70;;;1.20;;
76475;SDS011;65308;50.078;14.854;2024-02-23T11:23:24;2.83;;;1.33;;
76475;SDS011;65308;50.078;14.854;2024-02-23T11:26:00;3.25;;;1.23;;
76475;SDS011;65308;50.078;14.854;2024-02-23T11:28:31;2.13;;;1.13;;
76475;SDS011;65308;50.078;14.854;2024-02-23T11:30:58;3.28;;;1.40;;
76475;SDS011;65308;50.078;14.854;2024-02-23T11:33:27;2.65;;;1.30;;
76475;SDS011;65308;50.078;14.854;2024-02-23T11:36:04;1.90;;;0.98;;
76475;SDS011;65308;50.078;14.854;2024-02-23T11:38:33;3.08;;;1.10;;
76475;SDS011;65308;50.078;14.854;2024-02-23T11:40:59;2.10;;;1.20;;
76475;SDS011;65308;50.078;14.854;2024-02-23T11:43:26;2.45;;;1.20;;
76475;SDS011;65308;50.078;14.854;2024-02-23T11:45:53;1.23;;;0.90;;
76475;SDS011;65308;50.078;14.854;2024-02-23T11:48:20;2.00;;;1.10;;
76475;SDS011;65308;50.078;14.854;2024-02-23T11:50:47;2.20;;;0.93;;
76475;SDS011;65308;50.078;14.854;2024-02-23T11:55:45;3.17;;;1.27;;
76475;SDS011;65308;50.078;14.854;2024-02-23T11:58:13;3.50;;;1.60;;
76475;SDS011;65308;50.078;14.854;2024-02-23T12:00:39;3.58;;;1.60;;
76475;SDS011;65308;50.078;14.854;2024-02-23T12:03:06;1.52;;;1.00;;
76475;SDS011;65308;50.078;14.854;2024-02-23T12:05:33;2.05;;;1.10;;
76475;SDS011;65308;50.078;14.854;2024-02-23T12:08:00;1.63;;;1.00;;
76475;SDS011;65308;50.078;14.854;2024-02-23T12:10:26;2.53;;;1.30;;
76475;SDS011;65308;50.078;14.854;2024-02-23T12:12:55;2.83;;;1.10;;
76475;SDS011;65308;50.078;14.854;2024-02-23T12:15:22;2.53;;;1.10;;
76475;SDS011;65308;50.078;14.854;2024-02-23T12:17:49;2.72;;;1.20;;
76475;SDS011;65308;50.078;14.854;2024-02-23T12:20:16;2.83;;;1.20;;
76475;SDS011;65308;50.078;14.854;2024-02-23T12:22:42;2.33;;;1.25;;
76475;SDS011;65308;50.078;14.854;2024-02-23T12:25:09;2.60;;;1.10;;
76475;SDS011;65308;50.078;14.854;2024-02-23T12:27:37;2.42;;;1.13;;
76475;SDS011;65308;50.078;14.854;2024-02-23T12:30:12;4.22;;;1.55;;
76475;SDS011;65308;50.078;14.854;2024-02-23T12:32:41;3.47;;;1.65;;
76475;SDS011;65308;50.078;14.854;2024-02-23T12:35:10;3.22;;;1.30;;
76475;SDS011;65308;50.078;14.854;2024-02-23T12:37:36;2.80;;;1.67;;
76475;SDS011;65308;50.078;14.854;2024-02-23T12:42:31;3.92;;;1.98;;
76475;SDS011;65308;50.078;14.854;2024-02-23T12:44:58;4.97;;;2.25;;
76475;SDS011;65308;50.078;14.854;2024-02-23T12:47:26;3.97;;;1.98;;
76475;SDS011;65308;50.078;14.854;2024-02-23T12:49:53;4.47;;;1.40;;
76475;SDS011;65308;50.078;14.854;2024-02-23T12:52:20;2.83;;;1.30;;
76475;SDS011;65308;50.078;14.854;2024-02-23T12:54:46;3.85;;;1.83;;
76475;SDS011;65308;50.078;14.854;2024-02-23T12:57:13;2.88;;;1.45;;
76475;SDS011;65308;50.078;14.854;2024-02-23T12:59:41;2.15;;;1.10;;
76475;SDS011;65308;50.078;14.854;2024-02-23T13:02:08;3.13;;;1.23;;
76475;SDS011;65308;50.078;14.854;2024-02-23T13:04:41;2.90;;;1.33;;
76475;SDS011;65308;50.078;14.854;2024-02-23T13:07:13;3.30;;;1.27;;
76475;SDS011;65308;50.078;14.854;2024-02-23T13:09:40;3.50;;;1.38;;
76475;SDS011;65308;50.078;14.854;2024-02-23T13:12:06;2.85;;;1.40;;
76475;SDS011;65308;50.078;14.854;2024-02-23T13:14:33;2.40;;;1.42;;
76475;SDS011;65308;50.078;14.854;2024-02-23T13:17:00;4.00;;;1.55;;
76475;SDS011;65308;50.078;14.854;2024-02-23T13:19:27;5.18;;;1.40;;
76475;SDS011;65308;50.078;14.854;2024-02-23T13:21:55;4.55;;;1.50;;
76475;SDS011;65308;50.078;14.854;2024-02-23T13:24:21;2.50;;;1.50;;
76475;SDS011;65308;50.078;14.854;2024-02-23T13:26:48;2.80;;;1.45;;
76475;SDS011;65308;50.078;14.854;2024-02-23T13:29:15;2.35;;;1.40;;
76475;SDS011;65308;50.078;14.854;2024-02-23T13:31:41;4.82;;;1.52;;
76475;SDS011;65308;50.078;14.854;2024-02-23T13:34:08;3.58;;;1.50;;
76475;SDS011;65308;50.078;14.854;2024-02-23T13:36:35;3.58;;;1.73;;
76475;SDS011;65308;50.078;14.854;2024-02-23T13:39:04;7.72;;;2.80;;
76475;SDS011;65308;50.078;14.854;2024-02-23T13:41:30;10.25;;;4.75;;
76475;SDS011;65308;50.078;14.854;2024-02-23T13:43:57;16.85;;;5.45;;
76475;SDS011;65308;50.078;14.854;2024-02-23T13:46:24;18.17;;;5.13;;
76475;SDS011;65308;50.078;14.854;2024-02-23T13:49:01;4.97;;;2.83;;
76475;SDS011;65308;50.078;14.854;2024-02-23T13:51:30;5.75;;;2.22;;
76475;SDS011;65308;50.078;14.854;2024-02-23T13:53:57;12.02;;;6.07;;
76475;SDS011;65308;50.078;14.854;2024-02-23T13:56:26;3.20;;;1.42;;
76475;SDS011;65308;50.078;14.854;2024-02-23T13:58:52;3.20;;;1.73;;
76475;SDS011;65308;50.078;14.854;2024-02-23T14:01:19;5.22;;;2.45;;
76475;SDS011;65308;50.078;14.854;2024-02-23T14:03:46;4.22;;;1.70;;
76475;SDS011;65308;50.078;14.854;2024-02-23T14:06:13;5.55;;;2.17;;
76475;SDS011;65308;50.078;14.854;2024-02-23T14:08:39;6.45;;;2.33;;
76475;SDS011;65308;50.078;14.854;2024-02-23T14:11:07;4.97;;;2.53;;
76475;SDS011;65308;50.078;14.854;2024-02-23T14:13:35;5.32;;;1.50;;
76475;SDS011;65308;50.078;14.854;2024-02-23T14:16:03;3.75;;;1.73;;
76475;SDS011;65308;50.078;14.854;2024-02-23T14:18:30;5.35;;;2.00;;
76475;SDS011;65308;50.078;14.854;2024-02-23T14:21:01;5.00;;;2.13;;
76475;SDS011;65308;50.078;14.854;2024-02-23T14:25:55;5.28;;;3.03;;
76475;SDS011;65308;50.078;14.854;2024-02-23T14:28:22;7.95;;;2.97;;
76475;SDS011;65308;50.078;14.854;2024-02-23T14:30:50;5.45;;;2.70;;
76475;SDS011;65308;50.078;14.854;2024-02-23T14:33:18;5.18;;;2.38;;
76475;SDS011;65308;50.078;14.854;2024-02-23T14:35:45;4.20;;;1.98;;
76475;SDS011;65308;50.078;14.854;2024-02-23T14:38:12;10.02;;;3.90;;
76475;SDS011;65308;50.078;14.854;2024-02-23T14:40:39;5.70;;;2.95;;
76475;SDS011;65308;50.078;14.854;2024-02-23T14:43:11;6.13;;;2.50;;
76475;SDS011;65308;50.078;14.854;2024-02-23T14:45:38;4.55;;;2.03;;
76475;SDS011;65308;50.078;14.854;2024-02-23T14:48:07;5.88;;;1.80;;
76475;SDS011;65308;50.078;14.854;2024-02-23T14:50:34;3.33;;;1.67;;
76475;SDS011;65308;50.078;14.854;2024-02-23T14:53:01;3.13;;;1.55;;